Time;durP1;ratioP1;P1;durP2;ratioP2;P2;SDS_P1;SDS_P2;PMS_P1;PMS_P2;Temp;Humidity;BMP_temperature;BMP_pressure;BME280_temperature;BME280_humidity;BME280_pressure;Samples;Min_cycle;Max_cycle;Signal;HPM_P1;HPM_P2
2021/04/01 00:04:44;;;;;;;28.77;16.53;;;;;;;8.33;66.61;95079.72;10481109;28;20035;-78
2021/04/01 00:09:45;;;;;;;33.88;16.13;;;;;;;8.25;67.57;95072.13;10479564;28;20399;-78
2021/04/01 00:14:45;;;;;;;29.13;15.25;;;;;;;8.10;67.32;95062.03;10481732;28;20039;-78
2021/04/01 00:19:46;;;;;;;24.70;14.45;;;;;;;8.03;67.90;95054.19;10481595;28;20115;-78
2021/04/01 00:24:46;;;;;;;24.90;14.40;;;;;;;7.98;67.59;95053.31;10480902;28;20544;-78
2021/04/01 00:29:47;;;;;;;27.35;13.77;;;;;;;7.91;68.45;95048.16;10480062;28;20483;-78
2021/04/01 00:34:47;;;;;;;21.90;14.03;;;;;;;7.97;68.24;95047.16;10481168;28;20031;-78
2021/04/01 00:39:48;;;;;;;23.43;14.10;;;;;;;7.92;68.89;95036.38;10481030;28;20075;-78
2021/04/01 00:44:48;;;;;;;26.90;14.35;;;;;;;8.02;68.26;95030.34;10479775;28;20052;-78
2021/04/01 00:49:48;;;;;;;25.60;14.47;;;;;;;8.21;68.21;95025.47;10480128;28;20126;-78
2021/04/01 00:54:49;;;;;;;21.93;12.63;;;;;;;8.38;65.81;95012.00;10483065;28;20286;-79
2021/04/01 00:59:50;;;;;;;22.33;14.27;;;;;;;8.28;67.41;95007.34;10481094;28;20719;-78
2021/04/01 01:04:50;;;;;;;30.48;14.38;;;;;;;8.43;66.03;94995.16;10480737;28;20063;-79
2021/04/01 01:09:51;;;;;;;25.27;14.07;;;;;;;8.37;68.96;94997.81;10483479;28;20043;-79
2021/04/01 01:14:51;;;;;;;23.43;13.70;;;;;;;8.43;67.95;94989.81;10483686;28;20055;-79
2021/04/01 01:19:53;;;;;;;25.30;15.10;;;;;;;8.28;69.61;94985.94;10491017;28;20028;-79
2021/04/01 01:24:53;;;;;;;23.48;14.73;;;;;;;8.14;69.49;94979.34;10491318;28;20036;-78
2021/04/01 01:29:54;;;;;;;24.50;14.07;;;;;;;7.72;74.53;94964.69;10491243;28;20043;-78
2021/04/01 01:34:54;;;;;;;30.95;14.38;;;;;;;7.75;76.81;94952.69;10491544;28;20028;-78
2021/04/01 01:39:55;;;;;;;25.53;13.93;;;;;;;7.86;76.38;94944.53;10487606;28;20025;-79
2021/04/01 01:44:55;;;;;;;31.60;14.35;;;;;;;8.02;76.69;94942.00;10450500;28;20286;-79
2021/04/01 01:49:56;;;;;;;21.10;13.40;;;;;;;8.25;74.29;94940.91;10450304;28;20028;-79
2021/04/01 01:54:56;;;;;;;26.30;14.00;;;;;;;8.41;77.08;94931.16;10450303;28;20111;-79
2021/04/01 01:59:56;;;;;;;26.17;13.70;;;;;;;8.26;76.46;94918.44;10449786;28;20025;-78
2021/04/01 02:04:57;;;;;;;26.33;14.20;;;;;;;8.19;75.25;94917.81;10449154;28;20111;-78
2021/04/01 02:09:57;;;;;;;27.23;13.73;;;;;;;8.32;78.16;94913.94;10447075;28;20475;-78
2021/04/01 02:14:57;;;;;;;24.95;15.57;;;;;;;8.38;76.55;94919.06;10446697;28;20417;-79
2021/04/01 02:19:58;;;;;;;28.43;14.97;;;;;;;8.24;75.49;94925.09;10447299;28;20393;-79
2021/04/01 02:24:58;;;;;;;22.85;13.98;;;;;;;8.29;74.85;94925.97;10446922;28;20492;-79
2021/04/01 02:30:00;;;;;;;23.80;14.38;;;;;;;8.16;72.16;94929.88;10445610;28;20017;-79
2021/04/01 02:35:00;;;;;;;24.85;12.88;;;;;;;8.18;75.05;94930.41;10446392;28;20021;-79
2021/04/01 02:40:01;;;;;;;21.35;12.35;;;;;;;8.27;74.76;94943.34;10444955;28;20017;-79
2021/04/01 02:45:01;;;;;;;34.35;18.25;;;;;;;8.24;80.84;94958.03;10446792;28;20476;-79
2021/04/01 02:50:05;;;;;;;36.83;19.13;;;;;;;8.30;78.81;94967.75;10445694;28;20020;-80
2021/04/01 02:55:07;;;;;;;38.67;18.88;;;;;;;8.25;82.17;94967.69;10445443;28;20439;-79
2021/04/01 03:00:12;;;;;;;38.03;19.20;;;;;;;8.10;81.92;94975.56;10444736;28;20024;-79
2021/04/01 03:05:13;;;;;;;32.05;19.40;;;;;;;8.02;83.78;94971.44;10444402;28;20102;-79
2021/04/01 03:10:14;;;;;;;29.92;17.50;;;;;;;8.03;83.11;94965.84;10445272;28;20025;-80
2021/04/01 03:15:15;;;;;;;31.85;16.35;;;;;;;7.72;83.83;94951.31;10443323;28;20063;-79
2021/04/01 03:20:16;;;;;;;41.20;18.38;;;;;;;7.76;84.72;94954.28;10454666;28;20107;-79
2021/04/01 03:25:16;;;;;;;32.60;18.83;;;;;;;7.78;83.28;94950.31;10485002;28;20021;-79
2021/04/01 03:30:18;;;;;;;33.33;17.52;;;;;;;7.83;83.81;94949.59;10484961;28;20486;-79
2021/04/01 03:35:24;;;;;;;31.77;17.67;;;;;;;7.97;80.76;94936.63;10485477;28;20074;-80
2021/04/01 03:40:24;;;;;;;34.40;17.23;;;;;;;8.02;79.87;94942.84;10483574;28;20021;-79
2021/04/01 03:45:25;;;;;;;28.33;16.17;;;;;;;7.93;79.09;94932.84;10484241;28;20454;-80
2021/04/01 03:50:25;;;;;;;37.58;17.45;;;;;;;8.07;80.84;94936.72;10485176;28;20043;-81
2021/04/01 04:00:40;;;;;;;35.55;17.92;;;;;;;8.07;81.04;94938.59;10485263;28;20405;-80
2021/04/01 04:05:53;;;;;;;32.65;16.92;;;;;;;8.02;82.19;94953.53;10483263;28;20044;-80
2021/04/01 04:15:57;;;;;;;32.83;16.83;;;;;;;8.08;84.10;94942.88;10484048;28;20074;-80
2021/04/01 04:20:58;;;;;;;38.95;19.95;;;;;;;7.98;83.99;94943.56;10485657;28;20484;-80
2021/04/01 04:25:58;;;;;;;33.27;17.83;;;;;;;7.93;85.08;94943.53;10483158;28;20017;-79
2021/04/01 04:31:01;;;;;;;38.10;17.88;;;;;;;7.86;87.48;94959.78;10476821;28;20037;-81
2021/04/01 04:36:02;;;;;;;34.17;17.38;;;;;;;8.00;86.09;94961.00;10477335;28;20029;-80
2021/04/01 04:41:02;;;;;;;34.17;16.90;;;;;;;7.98;86.78;94973.84;10471394;28;20090;-82
2021/04/01 04:46:03;;;;;;;36.38;17.60;;;;;;;7.96;85.34;94970.59;10483727;28;20491;-82
2021/04/01 04:51:04;;;;;;;29.13;16.33;;;;;;;7.94;82.13;94983.44;10483917;28;20086;-72
2021/04/01 05:01:12;;;;;;;35.42;17.17;;;;;;;7.84;82.62;94989.47;10487540;28;20040;-73
2021/04/01 05:06:21;;;;;;;34.42;17.35;;;;;;;7.89;82.36;94994.06;10491675;28;20519;-73
2021/04/01 05:11:21;;;;;;;36.35;18.85;;;;;;;8.00;84.47;94986.97;10487026;28;20036;-73
2021/04/01 05:16:22;;;;;;;39.90;18.60;;;;;;;8.16;85.63;94998.63;10488597;28;20062;-73
2021/04/01 05:21:29;;;;;;;38.07;17.93;;;;;;;8.16;83.06;95001.31;10485141;28;20503;-77
2021/04/01 05:31:37;;;;;;;34.83;19.00;;;;;;;8.02;91.47;94991.03;10488639;28;20036;-76
2021/04/01 05:36:42;;;;;;;42.58;18.58;;;;;;;7.89;86.23;94995.94;10487936;28;20028;-76
2021/04/01 05:41:46;;;;;;;34.63;19.50;;;;;;;7.86;89.64;94997.25;10486490;28;20021;-77
2021/04/01 05:46:59;;;;;;;39.85;19.67;;;;;;;8.06;89.49;95001.22;10486131;28;20433;-77
2021/04/01 06:08:16;;;;;;;37.08;17.92;;;;;;;9.22;73.30;95009.78;10437570;28;20048;-77
2021/04/01 06:13:19;;;;;;;30.40;16.17;;;;;;;9.69;72.65;95025.13;10461519;28;20063;-76
2021/04/01 06:18:22;;;;;;;29.38;16.42;;;;;;;10.09;65.48;95020.22;10488075;28;20834;-76
2021/04/01 06:23:31;;;;;;;35.50;15.73;;;;;;;9.81;65.96;95029.47;10454517;28;20040;-76
2021/04/01 06:28:48;;;;;;;34.88;16.27;;;;;;;10.02;64.42;95027.69;10485502;28;20052;-76
2021/04/01 06:33:50;;;;;;;41.00;15.45;;;;;;;11.10;65.73;95026.06;10488197;28;20066;-76
2021/04/01 06:38:51;;;;;;;23.55;12.52;;;;;;;12.68;54.39;95021.59;10488948;28;20032;-76
2021/04/01 06:44:20;;;;;;;23.10;13.20;;;;;;;14.12;49.78;95012.25;10487881;28;20042;-77
2021/04/01 06:50:16;;;;;;;22.95;12.65;;;;;;;13.86;46.40;95012.53;10448006;28;20463;-76
2021/04/01 06:55:05;;;;;;;24.50;13.65;;;;;;;15.63;45.28;95015.19;10435725;28;20052;-77
2021/04/01 07:05:24;;;;;;;24.17;13.07;;;;;;;17.89;41.20;95010.31;10486835;28;20056;-78
2021/04/01 07:10:43;;;;;;;27.67;11.98;;;;;;;19.28;38.27;95000.88;10482970;28;20143;-77
2021/04/01 07:15:48;;;;;;;17.23;10.88;;;;;;;19.61;37.60;95008.50;10483710;28;20035;-76
2021/04/01 07:47:59;;;;;;;23.13;12.00;;;;;;;18.85;42.27;95014.44;10460755;28;20068;-78
2021/04/01 07:53:01;;;;;;;18.50;11.00;;;;;;;18.75;37.66;95021.00;10459291;28;20035;-77
2021/04/01 08:08:45;;;;;;;23.70;11.23;;;;;;;21.66;33.51;95012.19;10457700;28;20060;-76
2021/04/01 08:13:56;;;;;;;14.75;9.57;;;;;;;24.03;30.87;94998.66;10460639;28;20039;-77
2021/04/01 08:18:58;;;;;;;13.68;8.75;;;;;;;25.14;29.27;94989.44;10482192;28;20479;-77
2021/04/01 08:24:06;;;;;;;17.05;9.02;;;;;;;25.68;28.12;94987.03;10482746;28;20087;-78
2021/04/01 08:39:17;;;;;;;16.98;9.05;;;;;;;23.14;29.95;94986.81;10481737;28;20017;-78
2021/04/01 08:44:55;;;;;;;18.30;8.90;;;;;;;24.02;28.90;94986.84;10465462;28;20115;-77
2021/04/01 08:50:28;;;;;;;14.07;8.57;;;;;;;24.39;29.97;94981.09;10446312;28;20352;-78
2021/04/01 08:55:45;;;;;;;13.27;7.78;;;;;;;24.32;28.20;94975.44;10480405;28;20041;-78
2021/04/01 09:00:49;;;;;;;8.98;6.70;;;;;;;24.98;27.92;94981.25;10480914;28;20156;-78
2021/04/01 09:05:54;;;;;;;12.07;7.13;;;;;;;22.76;28.55;94966.06;10480289;28;20842;-77
2021/04/01 09:10:55;;;;;;;14.55;7.60;;;;;;;20.36;31.22;94982.75;10482124;28;20093;-77
2021/04/01 09:21:04;;;;;;;11.95;6.82;;;;;;;20.78;30.33;94982.81;10483313;28;20024;-78
2021/04/01 09:26:06;;;;;;;10.60;7.40;;;;;;;19.97;31.29;94960.13;10484495;28;20024;-77
2021/04/01 09:31:09;;;;;;;13.80;7.90;;;;;;;18.75;34.08;94961.91;10483242;28;20037;-77
2021/04/01 09:36:15;;;;;;;16.15;7.75;;;;;;;18.90;36.03;94947.03;10483846;28;20043;-77
2021/04/01 09:41:27;;;;;;;12.52;7.30;;;;;;;19.36;34.16;94943.94;10459826;28;20198;-77
2021/04/01 09:46:28;;;;;;;11.18;5.50;;;;;;;19.36;31.74;94938.50;10449655;28;20086;-77
2021/04/01 09:51:33;;;;;;;9.38;4.82;;;;;;;21.10;28.79;94930.53;10448836;28;20029;-78
2021/04/01 09:56:34;;;;;;;10.27;4.63;;;;;;;23.77;27.87;94919.53;10450457;28;20112;-78
2021/04/01 10:01:35;;;;;;;7.90;4.53;;;;;;;26.82;21.92;94901.91;10447290;28;20024;-77
2021/04/01 10:06:42;;;;;;;7.15;4.13;;;;;;;28.39;21.82;94890.09;10463199;28;20127;-77
2021/04/01 10:11:47;;;;;;;;;;;;;;;29.93;18.07;94882.81;10487221;28;20052;-78
2021/04/01 10:16:57;;;;;;;6.93;3.33;;;;;;;31.00;17.43;94878.31;10485339;28;19936;-77
2021/04/01 10:21:58;;;;;;;6.60;2.65;;;;;;;31.41;17.98;94872.22;10445332;28;20029;-78
2021/04/01 10:32:09;;;;;;;6.82;2.50;;;;;;;31.03;16.72;94866.44;10485888;28;20037;-78
2021/04/01 10:37:12;;;;;;;8.55;3.72;;;;;;;30.77;18.06;94857.41;10466506;28;20090;-78
2021/04/01 10:42:14;;;;;;;5.50;2.40;;;;;;;31.79;14.99;94839.06;10443060;28;20098;-77
2021/04/01 10:47:15;;;;;;;4.38;2.42;;;;;;;31.46;14.15;94830.13;10443879;28;20086;-77
2021/04/01 10:52:15;;;;;;;5.32;2.72;;;;;;;31.39;14.15;94824.63;10442535;28;20094;-76
2021/04/01 10:57:30;;;;;;;3.37;2.47;;;;;;;30.65;15.13;94836.41;10444237;28;20040;-76
2021/04/01 11:02:37;;;;;;;4.93;3.28;;;;;;;28.32;16.85;94834.75;10444208;28;20071;-75
2021/04/01 11:07:48;;;;;;;3.67;2.90;;;;;;;27.87;16.28;94831.28;10445596;28;20140;-76
2021/04/01 11:12:50;;;;;;;4.22;2.20;;;;;;;27.85;15.50;94800.47;10484247;28;20062;-76
2021/04/01 11:17:58;;;;;;;5.88;2.25;;;;;;;29.78;13.31;94809.97;10464102;28;20503;-76
2021/04/01 11:23:06;;;;;;;4.38;2.58;;;;;;;29.42;15.29;94796.09;10443360;28;20024;-76
2021/04/01 11:28:06;;;;;;;5.25;2.60;;;;;;;26.59;15.44;94788.94;10459384;28;20040;-76
2021/04/01 11:33:08;;;;;;;5.72;2.63;;;;;;;22.68;17.35;94795.22;10484019;28;20032;-76
2021/04/01 11:38:17;;;;;;;8.52;3.08;;;;;;;21.03;19.49;94796.34;10483431;28;20531;-75
2021/04/01 11:43:25;;;;;;;4.07;3.15;;;;;;;20.07;21.08;94798.00;10483879;28;20396;-76
2021/04/01 11:48:25;;;;;;;6.57;3.17;;;;;;;19.35;19.67;94787.00;10496526;28;20051;-76
2021/04/01 11:53:25;;;;;;;4.53;2.83;;;;;;;18.64;22.12;94780.94;10482817;28;20107;-76
2021/04/01 11:58:30;;;;;;;6.73;3.57;;;;;;;18.25;23.22;94778.13;10483854;28;20548;-76
2021/04/01 12:03:46;;;;;;;8.38;3.75;;;;;;;18.15;22.67;94780.34;10482358;28;20110;-76
2021/04/01 12:08:47;;;;;;;5.88;3.33;;;;;;;17.91;22.68;94770.75;10482403;28;20105;-76
2021/04/01 12:13:47;;;;;;;44.42;6.35;;;;;;;17.58;24.08;94766.53;10483239;28;20032;-76
2021/04/01 12:18:48;;;;;;;5.07;3.00;;;;;;;17.61;22.29;94759.66;10482598;28;20804;-77
2021/04/01 12:23:53;;;;;;;8.23;3.88;;;;;;;17.40;23.69;94743.13;10482696;28;20479;-76
2021/04/01 12:29:02;;;;;;;6.28;3.35;;;;;;;17.48;24.56;94745.06;10483025;28;20387;-76
2021/04/01 12:34:03;;;;;;;5.35;3.33;;;;;;;17.63;24.88;94745.75;10482774;28;20051;-77
2021/04/01 12:39:08;;;;;;;6.70;3.70;;;;;;;17.41;26.29;94731.16;10482320;28;20094;-76
2021/04/01 12:44:08;;;;;;;5.70;3.10;;;;;;;17.24;21.89;94724.56;10481419;28;20839;-76
2021/04/01 12:49:19;;;;;;;5.80;3.30;;;;;;;17.22;25.06;94721.38;10481954;28;20032;-76
2021/04/01 12:54:26;;;;;;;5.72;3.22;;;;;;;17.36;24.96;94720.44;10482426;28;20044;-77
2021/04/01 12:59:43;;;;;;;5.75;3.75;;;;;;;17.25;23.44;94707.16;10480698;28;20052;-77
2021/04/01 13:04:56;;;;;;;5.43;3.15;;;;;;;17.23;23.19;94712.09;10481164;28;20032;-76
2021/04/01 13:15:10;;;;;;;6.95;4.10;;;;;;;17.03;24.54;94704.53;10487395;28;20029;-76
2021/04/01 13:20:11;;;;;;;8.82;3.25;;;;;;;16.79;25.43;94702.97;10489213;28;20471;-76
2021/04/01 13:25:14;;;;;;;6.22;3.40;;;;;;;16.94;27.05;94692.84;10487899;28;20438;-77
2021/04/01 13:30:18;;;;;;;6.03;3.65;;;;;;;16.68;25.31;94688.09;10487807;28;20138;-76
2021/04/01 13:40:42;;;;;;;9.52;3.83;;;;;;;16.47;27.53;94677.78;10489710;28;20783;-76
2021/04/01 13:45:43;;;;;;;7.32;3.38;;;;;;;16.46;25.21;94676.16;10463524;28;20033;-77
2021/04/01 13:50:50;;;;;;;5.97;3.47;;;;;;;16.52;24.97;94680.38;10452929;28;20029;-76
2021/04/01 13:56:01;;;;;;;4.53;3.20;;;;;;;16.46;24.23;94667.25;10486779;28;20032;-76
2021/04/01 14:11:24;;;;;;;6.53;3.28;;;;;;;16.13;25.34;94664.81;10490179;28;20600;-76
2021/04/01 14:16:26;;;;;;;6.57;3.78;;;;;;;16.26;24.83;94661.25;10488472;28;20135;-76
2021/04/01 14:21:27;;;;;;;7.43;3.88;;;;;;;16.30;26.43;94658.69;10477574;28;20400;-76
2021/04/01 14:31:57;;;;;;;7.50;3.33;;;;;;;16.21;24.72;94662.19;10430091;28;20044;-76
2021/04/01 14:37:00;;;;;;;6.40;3.20;;;;;;;16.04;24.43;94651.22;10447428;28;20083;-76
2021/04/01 14:42:04;;;;;;;5.25;3.13;;;;;;;16.01;24.18;94644.50;10447512;28;20062;-76
2021/04/01 14:47:06;;;;;;;8.63;3.75;;;;;;;16.04;25.43;94651.22;10447356;28;20396;-77
2021/04/01 14:52:07;;;;;;;7.45;3.72;;;;;;;15.86;24.21;94644.88;10447350;28;20178;-76
2021/04/01 14:57:09;;;;;;;7.75;3.45;;;;;;;15.68;24.65;94657.47;10446653;28;20445;-76
2021/04/01 15:02:14;;;;;;;4.32;2.78;;;;;;;15.69;24.55;94642.84;10446700;28;20430;-76
2021/04/01 15:07:15;;;;;;;5.47;3.67;;;;;;;15.67;24.63;94648.56;10445421;28;20064;-76
2021/04/01 15:12:16;;;;;;;5.40;3.40;;;;;;;15.56;25.43;94644.50;10442192;28;20044;-75
2021/04/01 15:17:17;;;;;;;12.07;3.28;;;;;;;15.57;25.56;94642.59;10441496;28;20411;-75
2021/04/01 15:22:18;;;;;;;12.07;4.28;;;;;;;15.52;25.28;94638.09;10440559;28;20028;-75
2021/04/01 15:27:18;;;;;;;5.83;3.43;;;;;;;15.54;26.06;94644.00;10440854;28;20028;-76
2021/04/01 15:32:21;;;;;;;6.72;3.50;;;;;;;15.34;25.60;94642.56;10440863;28;20029;-75
2021/04/01 15:37:21;;;;;;;5.88;3.42;;;;;;;15.35;26.24;94641.47;10443250;28;20471;-76
2021/04/01 15:42:23;;;;;;;8.20;4.45;;;;;;;15.28;26.15;94638.34;10453752;28;20025;-78
2021/04/01 15:47:23;;;;;;;7.88;3.67;;;;;;;15.24;26.68;94635.47;10458028;28;20031;-78
2021/04/01 15:52:24;;;;;;;8.83;4.03;;;;;;;15.18;26.84;94633.97;10447548;28;20468;-78
2021/04/01 15:57:24;;;;;;;5.05;3.42;;;;;;;15.21;26.09;94636.09;10469793;28;20414;-77
2021/04/01 16:02:25;;;;;;;14.10;4.22;;;;;;;15.15;26.77;94638.09;10488784;28;20065;-78
2021/04/01 16:07:25;;;;;;;6.00;3.92;;;;;;;14.96;26.94;94637.41;10490721;28;20105;-79
2021/04/01 16:12:27;;;;;;;8.27;4.50;;;;;;;14.88;26.86;94632.75;10492280;28;20417;-80
2021/04/01 16:17:28;;;;;;;10.55;3.83;;;;;;;14.81;26.79;94635.84;10491673;28;20841;-79
2021/04/01 16:22:28;;;;;;;13.65;4.07;;;;;;;14.66;27.09;94626.91;10465980;28;20025;-79
2021/04/01 16:27:28;;;;;;;9.10;4.13;;;;;;;14.48;27.05;94623.22;10444476;28;20029;-78
2021/04/01 16:32:29;;;;;;;6.50;4.30;;;;;;;14.41;27.29;94633.59;10451121;28;20024;-78
2021/04/01 16:37:36;;;;;;;8.77;4.28;;;;;;;14.36;27.71;94637.22;10482341;28;20285;-77
2021/04/01 16:42:36;;;;;;;13.68;4.57;;;;;;;14.20;27.40;94635.88;10479831;28;20090;-77
2021/04/01 16:47:37;;;;;;;12.20;4.03;;;;;;;14.08;27.77;94639.09;10483455;28;20035;-77
2021/04/01 16:52:44;;;;;;;8.43;3.93;;;;;;;14.00;27.84;94642.47;10489921;28;20028;-77
2021/04/01 16:57:50;;;;;;;8.67;3.80;;;;;;;13.87;27.99;94646.75;10489669;28;20278;-78
2021/04/01 17:02:50;;;;;;;12.82;4.70;;;;;;;13.68;28.19;94644.88;10489120;28;20027;-77
2021/04/01 17:07:51;;;;;;;14.30;5.80;;;;;;;13.63;28.98;94639.56;10490886;28;20044;-77
2021/04/01 17:12:51;;;;;;;32.88;7.03;;;;;;;13.47;30.07;94632.81;10492762;28;20340;-77
2021/04/01 17:17:52;;;;;;;24.92;8.65;;;;;;;13.17;31.27;94640.22;10493337;28;20036;-77
2021/04/01 17:22:52;;;;;;;26.25;9.20;;;;;;;13.08;31.91;94642.75;10490693;28;20020;-77
2021/04/01 17:27:53;;;;;;;27.98;9.65;;;;;;;12.78;32.99;94650.19;10482367;28;20435;-77
2021/04/01 17:32:53;;;;;;;23.47;8.70;;;;;;;12.53;33.94;94655.84;10492325;28;20499;-77
2021/04/01 17:37:55;;;;;;;23.50;9.47;;;;;;;12.33;34.02;94651.50;10491283;28;20286;-78
2021/04/01 17:42:55;;;;;;;18.80;9.15;;;;;;;12.08;34.68;94658.75;10490196;28;21080;-76
2021/04/01 17:47:56;;;;;;;24.67;9.80;;;;;;;11.96;34.97;94664.53;10492391;28;20112;-76
2021/04/01 17:52:58;;;;;;;17.38;8.93;;;;;;;11.98;35.86;94659.66;10491292;28;20295;-77
2021/04/01 17:58:00;;;;;;;25.15;10.20;;;;;;;11.80;35.44;94661.94;10490508;28;20020;-78
2021/04/01 18:24:26;;;;;;;26.50;11.77;;;;;;;11.10;37.87;94684.47;10466963;28;19916;-76
2021/04/01 18:29:27;;;;;;;27.48;10.93;;;;;;;11.03;37.21;94688.56;10488149;28;20036;-76
2021/04/01 18:44:46;;;;;;;21.52;10.63;;;;;;;10.53;38.34;94693.88;10488466;28;20555;-77
2021/04/01 18:49:52;;;;;;;32.83;11.98;;;;;;;10.29;39.01;94691.75;10485764;28;20193;-77
2021/04/01 18:59:59;;;;;;;39.17;13.98;;;;;;;10.26;38.63;94686.94;10486592;28;20025;-77
2021/04/01 19:05:06;;;;;;;32.28;16.75;;;;;;;10.11;39.28;94693.13;10457587;28;20468;-76
2021/04/01 19:25:56;;;;;;;31.58;14.38;;;;;;;9.71;41.10;94684.84;10485478;28;20032;-76
2021/04/01 19:30:57;;;;;;;30.05;13.43;;;;;;;9.66;42.13;94681.38;10485795;28;20032;-76
2021/04/01 19:35:58;;;;;;;34.80;12.40;;;;;;;9.60;42.93;94683.25;10451829;28;20101;-77
2021/04/01 19:41:00;;;;;;;30.83;11.05;;;;;;;9.54;43.70;94678.94;10444351;28;20162;-77
2021/04/01 19:46:01;;;;;;;16.95;8.98;;;;;;;9.44;44.39;94678.94;10445010;28;20035;-77
2021/04/01 19:51:04;;;;;;;16.33;8.98;;;;;;;9.28;44.60;94673.56;10442927;28;20057;-77
2021/04/01 19:56:05;;;;;;;18.23;9.77;;;;;;;9.20;45.21;94676.75;10443071;28;20094;-77
2021/04/01 20:01:05;;;;;;;14.73;8.00;;;;;;;9.09;45.52;94667.88;10443571;28;20928;-77
2021/04/01 20:06:10;;;;;;;20.00;11.15;;;;;;;9.05;46.13;94667.59;10443174;28;20345;-77
2021/04/01 20:11:11;;;;;;;19.60;8.48;;;;;;;9.04;47.51;94670.53;10442924;28;20047;-76
2021/04/01 20:16:11;;;;;;;21.55;8.48;;;;;;;8.98;49.10;94669.72;10443633;28;20036;-77
2021/04/01 20:21:13;;;;;;;22.13;11.00;;;;;;;9.05;51.16;94669.47;10442333;28;20028;-77
2021/04/01 20:26:14;;;;;;;20.38;10.80;;;;;;;8.89;53.03;94672.13;10442938;28;20279;-77
2021/04/01 20:31:14;;;;;;;18.23;10.18;;;;;;;8.82;53.61;94676.94;10442921;28;20464;-78
2021/04/01 20:36:15;;;;;;;20.53;11.33;;;;;;;8.78;53.97;94675.03;10483390;28;20032;-74
2021/04/01 20:41:16;;;;;;;21.88;10.63;;;;;;;8.74;56.77;94677.44;10480429;28;20054;-85
2021/04/01 20:46:16;;;;;;;21.05;10.48;;;;;;;8.74;58.25;94676.63;10458814;28;20029;-84
2021/04/01 20:51:16;;;;;;;23.70;12.20;;;;;;;8.69;60.81;94664.00;10460195;28;20534;-83
2021/04/01 20:56:17;;;;;;;26.67;11.05;;;;;;;8.74;56.38;94668.59;10462666;28;20021;-82
2021/04/01 21:01:18;;;;;;;16.45;9.50;;;;;;;8.80;53.84;94670.22;10463173;28;20344;-82
2021/04/01 21:06:19;;;;;;;19.42;10.23;;;;;;;8.68;54.89;94671.25;10459366;28;20545;-82
2021/04/01 21:11:19;;;;;;;15.20;6.93;;;;;;;8.57;48.32;94672.28;10459368;28;20033;-82
2021/04/01 21:16:20;;;;;;;13.50;6.70;;;;;;;8.26;47.67;94676.66;10461691;28;20025;-82
2021/04/01 21:21:20;;;;;;;11.88;5.95;;;;;;;7.78;48.24;94687.31;10469245;28;20769;-80
2021/04/01 21:26:20;;;;;;;16.30;5.37;;;;;;;7.32;49.75;94691.22;10464797;28;20012;-81
2021/04/01 21:31:21;;;;;;;14.47;5.83;;;;;;;6.98;51.54;94687.97;10463097;28;20279;-81
2021/04/01 21:36:21;;;;;;;9.23;5.73;;;;;;;6.82;52.77;94689.66;10470229;28;20044;-82
2021/04/01 21:41:21;;;;;;;13.98;6.90;;;;;;;6.76;54.46;94688.78;10469755;28;20769;-81
2021/04/01 21:46:22;;;;;;;21.17;7.63;;;;;;;6.88;55.14;94688.66;10465157;28;20067;-82
2021/04/01 21:51:22;;;;;;;15.45;7.47;;;;;;;6.86;56.14;94684.63;10464913;28;20036;-82
2021/04/01 21:56:24;;;;;;;13.80;6.78;;;;;;;6.93;56.28;94682.56;10469273;28;20027;-82
2021/04/01 22:01:24;;;;;;;15.88;7.80;;;;;;;6.87;56.58;94678.25;10470003;28;20129;-82
2021/04/01 22:06:25;;;;;;;14.37;8.20;;;;;;;6.93;57.02;94674.53;10470143;28;20051;-83
2021/04/01 22:11:25;;;;;;;29.42;10.82;;;;;;;6.79;61.63;94669.59;10469559;28;20078;-82
2021/04/01 22:16:26;;;;;;;21.97;11.63;;;;;;;6.74;65.08;94669.56;10470941;28;20031;-79
2021/04/01 22:21:26;;;;;;;21.58;10.05;;;;;;;6.68;65.32;94670.53;10470147;28;20852;-79
2021/04/01 22:26:26;;;;;;;30.93;11.90;;;;;;;6.65;66.09;94665.69;10471615;28;20055;-80
2021/04/01 22:31:28;;;;;;;25.07;12.60;;;;;;;6.56;70.70;94665.34;10474723;28;20021;-80
2021/04/01 22:36:28;;;;;;;25.90;12.88;;;;;;;6.61;72.41;94659.25;10473788;28;20680;-81
2021/04/01 22:41:31;;;;;;;27.60;12.70;;;;;;;6.50;74.74;94650.31;10474790;28;20108;-81
2021/04/01 22:46:32;;;;;;;25.55;12.20;;;;;;;6.69;74.14;94658.81;10472146;28;20043;-80
2021/04/01 22:51:32;;;;;;;26.38;12.93;;;;;;;6.75;73.73;94654.31;10471234;28;20029;-80
2021/04/01 22:56:33;;;;;;;29.30;10.53;;;;;;;6.86;70.50;94656.03;10471214;28;20017;-80
2021/04/01 23:01:34;;;;;;;13.82;8.13;;;;;;;6.87;66.01;94644.31;10465545;28;20321;-80
2021/04/01 23:06:34;;;;;;;14.82;8.07;;;;;;;6.77;61.29;94649.56;10468077;28;20043;-80
2021/04/01 23:11:35;;;;;;;15.73;8.97;;;;;;;6.78;61.22;94646.63;10467958;28;20029;-81
2021/04/01 23:16:35;;;;;;;14.67;7.73;;;;;;;6.64;60.18;94640.03;10471961;28;20039;-80
2021/04/01 23:21:36;;;;;;;11.98;6.55;;;;;;;6.53;59.56;94639.16;10467790;28;20037;-80
2021/04/01 23:26:36;;;;;;;12.20;7.27;;;;;;;6.52;59.77;94634.84;10466250;28;20082;-80
2021/04/01 23:31:36;;;;;;;17.77;7.32;;;;;;;6.44;59.66;94629.94;10464695;28;20029;-80
2021/04/01 23:36:37;;;;;;;11.87;7.60;;;;;;;6.26;61.42;94625.72;10465249;28;20031;-79
2021/04/01 23:41:37;;;;;;;17.60;7.70;;;;;;;6.16;63.24;94624.53;10465586;28;20031;-80
2021/04/01 23:46:37;;;;;;;11.67;6.33;;;;;;;5.97;64.79;94618.72;10466112;28;20099;-80
2021/04/01 23:51:38;;;;;;;13.37;7.70;;;;;;;5.94;66.83;94613.81;10466513;28;20029;-80
2021/04/01 23:56:38;;;;;;;16.47;10.37;;;;;;;6.01;66.16;94610.22;10468077;28;20275;-80
